sensor_id;sensor_type;location;lat;lon;timestamp;P1;durP1;ratioP1;P2;durP2;ratioP2
22812;SDS011;11573;51.334;3.244;2023-06-24T00:00:33;6.28;;;5.47;;
22812;SDS011;11573;51.334;3.244;2023-06-24T00:03:01;7.38;;;6.03;;
22812;SDS011;11573;51.334;3.244;2023-06-24T00:05:28;7.80;;;5.68;;
22812;SDS011;11573;51.334;3.244;2023-06-24T00:07:55;9.23;;;5.75;;
22812;SDS011;11573;51.334;3.244;2023-06-24T00:10:23;8.45;;;5.80;;
22812;SDS011;11573;51.334;3.244;2023-06-24T00:12:50;7.68;;;5.97;;
22812;SDS011;11573;51.334;3.244;2023-06-24T00:15:17;9.13;;;6.43;;
22812;SDS011;11573;51.334;3.244;2023-06-24T00:17:44;7.60;;;6.40;;
22812;SDS011;11573;51.334;3.244;2023-06-24T00:20:11;7.25;;;6.28;;
22812;SDS011;11573;51.334;3.244;2023-06-24T00:22:41;7.80;;;6.20;;
22812;SDS011;11573;51.334;3.244;2023-06-24T00:25:10;7.72;;;6.13;;
22812;SDS011;11573;51.334;3.244;2023-06-24T00:27:37;6.95;;;6.10;;
22812;SDS011;11573;51.334;3.244;2023-06-24T00:30:05;8.65;;;7.43;;
22812;SDS011;11573;51.334;3.244;2023-06-24T00:32:34;7.97;;;6.55;;
22812;SDS011;11573;51.334;3.244;2023-06-24T00:35:01;8.65;;;7.47;;
22812;SDS011;11573;51.334;3.244;2023-06-24T00:37:28;7.97;;;6.95;;
22812;SDS011;11573;51.334;3.244;2023-06-24T00:39:55;7.47;;;6.50;;
22812;SDS011;11573;51.334;3.244;2023-06-24T00:42:22;10.05;;;6.78;;
22812;SDS011;11573;51.334;3.244;2023-06-24T00:44:48;9.65;;;7.65;;
22812;SDS011;11573;51.334;3.244;2023-06-24T00:47:16;9.20;;;7.53;;
22812;SDS011;11573;51.334;3.244;2023-06-24T00:49:43;10.35;;;7.35;;
22812;SDS011;11573;51.334;3.244;2023-06-24T00:52:12;11.07;;;8.52;;
22812;SDS011;11573;51.334;3.244;2023-06-24T00:54:43;9.85;;;7.57;;
22812;SDS011;11573;51.334;3.244;2023-06-24T00:57:10;9.68;;;7.57;;
22812;SDS011;11573;51.334;3.244;2023-06-24T00:59:38;10.57;;;8.38;;
22812;SDS011;11573;51.334;3.244;2023-06-24T01:02:09;9.52;;;7.63;;
22812;SDS011;11573;51.334;3.244;2023-06-24T01:04:37;11.93;;;8.38;;
22812;SDS011;11573;51.334;3.244;2023-06-24T01:07:05;11.70;;;8.43;;
22812;SDS011;11573;51.334;3.244;2023-06-24T01:09:35;9.40;;;8.40;;
22812;SDS011;11573;51.334;3.244;2023-06-24T01:12:02;10.35;;;8.68;;
22812;SDS011;11573;51.334;3.244;2023-06-24T01:14:30;11.00;;;8.63;;
22812;SDS011;11573;51.334;3.244;2023-06-24T01:17:05;9.75;;;8.75;;
22812;SDS011;11573;51.334;3.244;2023-06-24T01:34:06;14.33;;;9.87;;
22812;SDS011;11573;51.334;3.244;2023-06-24T01:36:40;12.20;;;9.63;;
22812;SDS011;11573;51.334;3.244;2023-06-24T01:39:12;12.55;;;9.95;;
22812;SDS011;11573;51.334;3.244;2023-06-24T01:41:44;15.05;;;10.15;;
22812;SDS011;11573;51.334;3.244;2023-06-24T01:44:16;12.70;;;9.85;;
22812;SDS011;11573;51.334;3.244;2023-06-24T01:46:46;14.52;;;10.90;;
22812;SDS011;11573;51.334;3.244;2023-06-24T01:49:15;14.45;;;10.35;;
22812;SDS011;11573;51.334;3.244;2023-06-24T01:51:43;14.05;;;9.82;;
22812;SDS011;11573;51.334;3.244;2023-06-24T01:54:15;12.95;;;10.02;;
22812;SDS011;11573;51.334;3.244;2023-06-24T01:56:45;13.00;;;10.38;;
22812;SDS011;11573;51.334;3.244;2023-06-24T01:59:14;15.73;;;10.82;;
22812;SDS011;11573;51.334;3.244;2023-06-24T02:01:44;13.85;;;11.45;;
22812;SDS011;11573;51.334;3.244;2023-06-24T02:04:11;14.35;;;11.05;;
22812;SDS011;11573;51.334;3.244;2023-06-24T02:06:41;16.00;;;11.60;;
22812;SDS011;11573;51.334;3.244;2023-06-24T02:09:09;15.20;;;11.57;;
22812;SDS011;11573;51.334;3.244;2023-06-24T02:11:37;15.98;;;11.57;;
22812;SDS011;11573;51.334;3.244;2023-06-24T02:14:06;15.70;;;12.13;;
22812;SDS011;11573;51.334;3.244;2023-06-24T02:16:35;16.23;;;12.05;;
22812;SDS011;11573;51.334;3.244;2023-06-24T02:19:09;17.35;;;12.90;;
22812;SDS011;11573;51.334;3.244;2023-06-24T02:21:39;18.13;;;11.85;;
22812;SDS011;11573;51.334;3.244;2023-06-24T02:24:08;14.70;;;11.75;;
22812;SDS011;11573;51.334;3.244;2023-06-24T02:26:35;16.98;;;12.50;;
22812;SDS011;11573;51.334;3.244;2023-06-24T02:29:08;18.05;;;13.07;;
22812;SDS011;11573;51.334;3.244;2023-06-24T02:31:37;17.63;;;13.35;;
22812;SDS011;11573;51.334;3.244;2023-06-24T02:34:04;19.67;;;13.07;;
22812;SDS011;11573;51.334;3.244;2023-06-24T02:36:31;19.38;;;13.40;;
22812;SDS011;11573;51.334;3.244;2023-06-24T02:38:58;18.40;;;13.40;;
22812;SDS011;11573;51.334;3.244;2023-06-24T02:41:25;16.80;;;12.80;;
22812;SDS011;11573;51.334;3.244;2023-06-24T02:43:52;23.88;;;14.25;;
22812;SDS011;11573;51.334;3.244;2023-06-24T02:46:19;18.88;;;13.82;;
22812;SDS011;11573;51.334;3.244;2023-06-24T02:48:48;19.88;;;13.00;;
22812;SDS011;11573;51.334;3.244;2023-06-24T02:51:16;19.00;;;14.65;;
22812;SDS011;11573;51.334;3.244;2023-06-24T02:53:45;21.73;;;14.88;;
22812;SDS011;11573;51.334;3.244;2023-06-24T02:56:15;18.42;;;13.73;;
22812;SDS011;11573;51.334;3.244;2023-06-24T02:58:48;19.27;;;13.35;;
22812;SDS011;11573;51.334;3.244;2023-06-24T03:01:21;20.80;;;14.25;;
22812;SDS011;11573;51.334;3.244;2023-06-24T03:03:53;17.98;;;14.23;;
22812;SDS011;11573;51.334;3.244;2023-06-24T03:06:21;19.90;;;15.02;;
22812;SDS011;11573;51.334;3.244;2023-06-24T03:08:49;21.67;;;14.77;;
22812;SDS011;11573;51.334;3.244;2023-06-24T03:11:19;21.50;;;15.85;;
22812;SDS011;11573;51.334;3.244;2023-06-24T03:13:47;21.30;;;15.55;;
22812;SDS011;11573;51.334;3.244;2023-06-24T03:16:20;20.35;;;15.10;;
22812;SDS011;11573;51.334;3.244;2023-06-24T03:18:52;21.13;;;15.13;;
22812;SDS011;11573;51.334;3.244;2023-06-24T03:21:20;22.08;;;15.68;;
22812;SDS011;11573;51.334;3.244;2023-06-24T03:23:49;21.20;;;14.75;;
22812;SDS011;11573;51.334;3.244;2023-06-24T03:26:16;21.30;;;14.45;;
22812;SDS011;11573;51.334;3.244;2023-06-24T03:28:43;22.73;;;15.55;;
22812;SDS011;11573;51.334;3.244;2023-06-24T03:31:14;22.23;;;16.13;;
22812;SDS011;11573;51.334;3.244;2023-06-24T03:33:42;22.80;;;15.95;;
22812;SDS011;11573;51.334;3.244;2023-06-24T03:36:15;21.55;;;14.90;;
22812;SDS011;11573;51.334;3.244;2023-06-24T03:38:43;25.67;;;16.48;;
22812;SDS011;11573;51.334;3.244;2023-06-24T03:41:10;22.00;;;15.65;;
22812;SDS011;11573;51.334;3.244;2023-06-24T03:43:37;26.67;;;17.33;;
22812;SDS011;11573;51.334;3.244;2023-06-24T03:46:04;25.02;;;16.70;;
22812;SDS011;11573;51.334;3.244;2023-06-24T03:48:31;23.73;;;16.80;;
22812;SDS011;11573;51.334;3.244;2023-06-24T03:50:58;23.27;;;16.77;;
22812;SDS011;11573;51.334;3.244;2023-06-24T03:53:27;21.98;;;16.98;;
22812;SDS011;11573;51.334;3.244;2023-06-24T03:55:54;24.55;;;17.23;;
22812;SDS011;11573;51.334;3.244;2023-06-24T03:58:22;23.98;;;18.23;;
22812;SDS011;11573;51.334;3.244;2023-06-24T04:00:49;21.92;;;16.88;;
22812;SDS011;11573;51.334;3.244;2023-06-24T04:03:16;23.98;;;17.42;;
22812;SDS011;11573;51.334;3.244;2023-06-24T04:05:46;24.27;;;17.05;;
22812;SDS011;11573;51.334;3.244;2023-06-24T04:08:18;23.52;;;16.90;;
22812;SDS011;11573;51.334;3.244;2023-06-24T04:10:45;25.15;;;17.17;;
22812;SDS011;11573;51.334;3.244;2023-06-24T04:13:11;26.42;;;17.73;;
22812;SDS011;11573;51.334;3.244;2023-06-24T04:15:39;23.30;;;17.42;;
22812;SDS011;11573;51.334;3.244;2023-06-24T04:18:06;23.65;;;16.85;;
22812;SDS011;11573;51.334;3.244;2023-06-24T04:20:33;25.45;;;16.60;;
22812;SDS011;11573;51.334;3.244;2023-06-24T04:23:04;26.25;;;15.80;;
22812;SDS011;11573;51.334;3.244;2023-06-24T04:25:32;22.10;;;16.45;;
22812;SDS011;11573;51.334;3.244;2023-06-24T04:27:59;20.52;;;15.52;;
22812;SDS011;11573;51.334;3.244;2023-06-24T04:30:26;21.83;;;14.60;;
22812;SDS011;11573;51.334;3.244;2023-06-24T04:32:53;19.30;;;14.57;;
22812;SDS011;11573;51.334;3.244;2023-06-24T04:35:21;19.10;;;14.68;;
22812;SDS011;11573;51.334;3.244;2023-06-24T04:37:48;20.00;;;14.27;;
22812;SDS011;11573;51.334;3.244;2023-06-24T04:40:18;18.15;;;14.10;;
22812;SDS011;11573;51.334;3.244;2023-06-24T04:42:45;18.10;;;13.63;;
22812;SDS011;11573;51.334;3.244;2023-06-24T04:45:12;15.90;;;13.63;;
22812;SDS011;11573;51.334;3.244;2023-06-24T04:47:39;16.67;;;13.32;;
22812;SDS011;11573;51.334;3.244;2023-06-24T04:50:07;16.17;;;12.98;;
22812;SDS011;11573;51.334;3.244;2023-06-24T04:52:38;15.15;;;13.23;;
22812;SDS011;11573;51.334;3.244;2023-06-24T04:55:05;18.13;;;14.18;;
22812;SDS011;11573;51.334;3.244;2023-06-24T04:57:33;18.05;;;14.75;;
22812;SDS011;11573;51.334;3.244;2023-06-24T05:00:00;17.92;;;13.75;;
22812;SDS011;11573;51.334;3.244;2023-06-24T05:02:27;17.02;;;14.15;;
22812;SDS011;11573;51.334;3.244;2023-06-24T05:04:54;19.25;;;14.68;;
22812;SDS011;11573;51.334;3.244;2023-06-24T05:07:21;18.02;;;15.50;;
22812;SDS011;11573;51.334;3.244;2023-06-24T05:09:49;19.00;;;15.45;;
22812;SDS011;11573;51.334;3.244;2023-06-24T05:12:17;18.85;;;14.38;;
22812;SDS011;11573;51.334;3.244;2023-06-24T05:14:48;17.70;;;15.00;;
22812;SDS011;11573;51.334;3.244;2023-06-24T05:17:16;20.95;;;15.20;;
22812;SDS011;11573;51.334;3.244;2023-06-24T05:19:43;22.20;;;16.15;;
22812;SDS011;11573;51.334;3.244;2023-06-24T05:22:10;19.92;;;14.40;;
22812;SDS011;11573;51.334;3.244;2023-06-24T05:24:37;19.73;;;15.05;;
22812;SDS011;11573;51.334;3.244;2023-06-24T05:27:05;19.77;;;15.90;;
22812;SDS011;11573;51.334;3.244;2023-06-24T05:29:33;18.15;;;14.82;;
22812;SDS011;11573;51.334;3.244;2023-06-24T05:32:00;19.90;;;15.55;;
22812;SDS011;11573;51.334;3.244;2023-06-24T05:34:30;17.05;;;14.50;;
22812;SDS011;11573;51.334;3.244;2023-06-24T05:36:57;17.60;;;15.27;;
22812;SDS011;11573;51.334;3.244;2023-06-24T05:39:24;16.80;;;14.25;;
22812;SDS011;11573;51.334;3.244;2023-06-24T05:41:52;18.25;;;14.85;;
22812;SDS011;11573;51.334;3.244;2023-06-24T05:44:19;18.52;;;14.95;;
22812;SDS011;11573;51.334;3.244;2023-06-24T05:46:46;17.75;;;15.13;;
22812;SDS011;11573;51.334;3.244;2023-06-24T05:49:13;17.38;;;14.93;;
22812;SDS011;11573;51.334;3.244;2023-06-24T05:51:40;19.85;;;15.30;;
22812;SDS011;11573;51.334;3.244;2023-06-24T05:54:07;20.38;;;15.73;;
22812;SDS011;11573;51.334;3.244;2023-06-24T05:56:34;18.90;;;16.23;;
22812;SDS011;11573;51.334;3.244;2023-06-24T05:59:05;17.40;;;14.70;;
22812;SDS011;11573;51.334;3.244;2023-06-24T06:01:32;17.75;;;15.85;;
22812;SDS011;11573;51.334;3.244;2023-06-24T06:03:59;19.73;;;17.17;;
22812;SDS011;11573;51.334;3.244;2023-06-24T06:06:27;24.30;;;17.45;;
22812;SDS011;11573;51.334;3.244;2023-06-24T06:08:53;21.65;;;17.35;;
22812;SDS011;11573;51.334;3.244;2023-06-24T06:11:21;20.65;;;17.35;;
22812;SDS011;11573;51.334;3.244;2023-06-24T06:13:48;26.02;;;18.40;;
22812;SDS011;11573;51.334;3.244;2023-06-24T06:16:15;21.05;;;16.65;;
22812;SDS011;11573;51.334;3.244;2023-06-24T06:18:42;20.83;;;16.52;;
22812;SDS011;11573;51.334;3.244;2023-06-24T06:21:09;25.98;;;18.10;;
22812;SDS011;11573;51.334;3.244;2023-06-24T06:23:36;23.98;;;18.40;;
22812;SDS011;11573;51.334;3.244;2023-06-24T06:26:02;25.58;;;19.15;;
22812;SDS011;11573;51.334;3.244;2023-06-24T06:28:29;25.40;;;18.52;;
22812;SDS011;11573;51.334;3.244;2023-06-24T06:30:56;26.63;;;19.95;;
22812;SDS011;11573;51.334;3.244;2023-06-24T06:33:23;25.90;;;18.33;;
22812;SDS011;11573;51.334;3.244;2023-06-24T06:35:50;26.00;;;19.08;;
22812;SDS011;11573;51.334;3.244;2023-06-24T06:38:17;21.88;;;18.02;;
22812;SDS011;11573;51.334;3.244;2023-06-24T06:40:44;24.50;;;18.42;;
22812;SDS011;11573;51.334;3.244;2023-06-24T06:43:11;27.73;;;19.33;;
22812;SDS011;11573;51.334;3.244;2023-06-24T06:45:38;25.45;;;20.55;;
22812;SDS011;11573;51.334;3.244;2023-06-24T06:48:06;23.23;;;18.30;;
22812;SDS011;11573;51.334;3.244;2023-06-24T06:50:34;27.73;;;21.00;;
22812;SDS011;11573;51.334;3.244;2023-06-24T06:53:02;25.55;;;20.10;;
22812;SDS011;11573;51.334;3.244;2023-06-24T06:55:29;28.33;;;21.13;;
22812;SDS011;11573;51.334;3.244;2023-06-24T06:57:56;26.05;;;19.83;;
22812;SDS011;11573;51.334;3.244;2023-06-24T07:00:22;28.85;;;20.95;;
22812;SDS011;11573;51.334;3.244;2023-06-24T07:02:50;29.38;;;20.73;;
22812;SDS011;11573;51.334;3.244;2023-06-24T07:05:17;29.88;;;21.13;;
22812;SDS011;11573;51.334;3.244;2023-06-24T07:07:44;26.80;;;19.80;;
22812;SDS011;11573;51.334;3.244;2023-06-24T07:10:12;26.30;;;18.17;;
22812;SDS011;11573;51.334;3.244;2023-06-24T07:12:39;18.75;;;15.63;;
22812;SDS011;11573;51.334;3.244;2023-06-24T07:15:06;20.10;;;16.33;;
22812;SDS011;11573;51.334;3.244;2023-06-24T07:17:37;17.58;;;13.40;;
22812;SDS011;11573;51.334;3.244;2023-06-24T07:20:05;18.23;;;13.20;;
22812;SDS011;11573;51.334;3.244;2023-06-24T07:22:33;20.58;;;14.20;;
22812;SDS011;11573;51.334;3.244;2023-06-24T07:25:00;17.67;;;13.93;;
22812;SDS011;11573;51.334;3.244;2023-06-24T07:27:27;18.90;;;13.43;;
22812;SDS011;11573;51.334;3.244;2023-06-24T07:29:54;19.23;;;12.82;;
22812;SDS011;11573;51.334;3.244;2023-06-24T07:32:22;16.55;;;13.43;;
22812;SDS011;11573;51.334;3.244;2023-06-24T07:34:49;18.08;;;13.70;;
22812;SDS011;11573;51.334;3.244;2023-06-24T07:37:16;15.43;;;12.55;;
22812;SDS011;11573;51.334;3.244;2023-06-24T07:39:50;15.63;;;13.73;;
22812;SDS011;11573;51.334;3.244;2023-06-24T07:42:17;16.98;;;13.75;;
22812;SDS011;11573;51.334;3.244;2023-06-24T07:44:47;24.67;;;13.10;;
22812;SDS011;11573;51.334;3.244;2023-06-24T07:47:16;14.02;;;12.50;;
22812;SDS011;11573;51.334;3.244;2023-06-24T07:49:43;18.55;;;15.50;;
22812;SDS011;11573;51.334;3.244;2023-06-24T07:52:10;19.20;;;14.77;;
22812;SDS011;11573;51.334;3.244;2023-06-24T07:54:37;21.25;;;15.68;;
22812;SDS011;11573;51.334;3.244;2023-06-24T07:57:04;19.67;;;14.90;;
22812;SDS011;11573;51.334;3.244;2023-06-24T07:59:31;16.83;;;15.10;;
22812;SDS011;11573;51.334;3.244;2023-06-24T08:01:58;17.80;;;15.30;;
22812;SDS011;11573;51.334;3.244;2023-06-24T08:04:25;16.08;;;14.35;;
22812;SDS011;11573;51.334;3.244;2023-06-24T08:06:52;16.42;;;13.95;;
22812;SDS011;11573;51.334;3.244;2023-06-24T08:09:19;19.13;;;14.82;;
22812;SDS011;11573;51.334;3.244;2023-06-24T08:11:46;18.33;;;13.85;;
22812;SDS011;11573;51.334;3.244;2023-06-24T08:14:14;18.17;;;13.68;;
22812;SDS011;11573;51.334;3.244;2023-06-24T08:16:41;19.30;;;14.38;;
22812;SDS011;11573;51.334;3.244;2023-06-24T08:19:08;16.50;;;14.32;;
22812;SDS011;11573;51.334;3.244;2023-06-24T08:21:35;21.25;;;14.80;;
22812;SDS011;11573;51.334;3.244;2023-06-24T08:24:04;21.23;;;14.95;;
22812;SDS011;11573;51.334;3.244;2023-06-24T08:26:31;19.70;;;15.18;;
22812;SDS011;11573;51.334;3.244;2023-06-24T08:28:59;19.55;;;15.80;;
22812;SDS011;11573;51.334;3.244;2023-06-24T08:31:29;20.35;;;15.15;;
22812;SDS011;11573;51.334;3.244;2023-06-24T08:33:58;19.98;;;16.15;;
22812;SDS011;11573;51.334;3.244;2023-06-24T08:36:27;19.55;;;14.93;;
22812;SDS011;11573;51.334;3.244;2023-06-24T08:38:58;24.83;;;17.00;;
22812;SDS011;11573;51.334;3.244;2023-06-24T08:41:25;19.38;;;15.70;;
22812;SDS011;11573;51.334;3.244;2023-06-24T08:43:52;23.60;;;16.73;;
22812;SDS011;11573;51.334;3.244;2023-06-24T08:46:20;22.35;;;16.95;;
22812;SDS011;11573;51.334;3.244;2023-06-24T08:48:49;24.75;;;16.77;;
22812;SDS011;11573;51.334;3.244;2023-06-24T08:51:27;18.13;;;15.82;;
22812;SDS011;11573;51.334;3.244;2023-06-24T08:53:57;16.70;;;14.15;;
22812;SDS011;11573;51.334;3.244;2023-06-24T08:56:25;24.33;;;17.10;;
22812;SDS011;11573;51.334;3.244;2023-06-24T08:58:52;15.70;;;14.05;;
22812;SDS011;11573;51.334;3.244;2023-06-24T09:01:19;17.40;;;13.15;;
22812;SDS011;11573;51.334;3.244;2023-06-24T09:03:49;16.70;;;13.43;;
22812;SDS011;11573;51.334;3.244;2023-06-24T09:06:16;16.77;;;13.13;;
22812;SDS011;11573;51.334;3.244;2023-06-24T09:08:53;17.80;;;13.45;;
22812;SDS011;11573;51.334;3.244;2023-06-24T09:11:24;17.10;;;13.60;;
22812;SDS011;11573;51.334;3.244;2023-06-24T09:13:59;18.08;;;12.82;;
22812;SDS011;11573;51.334;3.244;2023-06-24T09:16:27;16.27;;;12.25;;
22812;SDS011;11573;51.334;3.244;2023-06-24T09:18:55;16.88;;;14.48;;
22812;SDS011;11573;51.334;3.244;2023-06-24T09:21:26;15.35;;;13.70;;
22812;SDS011;11573;51.334;3.244;2023-06-24T09:23:57;16.45;;;13.85;;
22812;SDS011;11573;51.334;3.244;2023-06-24T09:26:25;16.15;;;13.63;;
22812;SDS011;11573;51.334;3.244;2023-06-24T09:28:53;14.77;;;12.20;;
22812;SDS011;11573;51.334;3.244;2023-06-24T09:31:23;17.77;;;13.48;;
22812;SDS011;11573;51.334;3.244;2023-06-24T09:33:50;17.83;;;14.48;;
22812;SDS011;11573;51.334;3.244;2023-06-24T09:36:18;16.92;;;13.40;;
22812;SDS011;11573;51.334;3.244;2023-06-24T09:38:45;21.40;;;13.90;;
22812;SDS011;11573;51.334;3.244;2023-06-24T09:41:13;16.08;;;12.48;;
22812;SDS011;11573;51.334;3.244;2023-06-24T09:43:41;20.30;;;13.60;;
22812;SDS011;11573;51.334;3.244;2023-06-24T09:46:12;22.17;;;14.43;;
22812;SDS011;11573;51.334;3.244;2023-06-24T09:48:40;18.88;;;13.48;;
22812;SDS011;11573;51.334;3.244;2023-06-24T09:51:07;18.70;;;13.85;;
22812;SDS011;11573;51.334;3.244;2023-06-24T09:53:35;18.90;;;12.13;;
22812;SDS011;11573;51.334;3.244;2023-06-24T09:56:03;14.30;;;12.63;;
22812;SDS011;11573;51.334;3.244;2023-06-24T09:58:35;16.80;;;13.30;;
22812;SDS011;11573;51.334;3.244;2023-06-24T10:01:04;22.45;;;13.93;;
22812;SDS011;11573;51.334;3.244;2023-06-24T10:03:33;18.77;;;13.07;;
22812;SDS011;11573;51.334;3.244;2023-06-24T10:06:02;23.33;;;14.73;;
22812;SDS011;11573;51.334;3.244;2023-06-24T10:08:29;20.95;;;15.13;;
22812;SDS011;11573;51.334;3.244;2023-06-24T10:11:00;23.23;;;15.23;;
22812;SDS011;11573;51.334;3.244;2023-06-24T10:13:29;23.55;;;15.57;;
22812;SDS011;11573;51.334;3.244;2023-06-24T10:15:56;19.52;;;14.25;;
22812;SDS011;11573;51.334;3.244;2023-06-24T10:18:37;17.10;;;12.80;;
22812;SDS011;11573;51.334;3.244;2023-06-24T10:21:06;16.58;;;13.13;;
22812;SDS011;11573;51.334;3.244;2023-06-24T10:26:09;16.63;;;12.60;;
22812;SDS011;11573;51.334;3.244;2023-06-24T10:36:59;17.65;;;11.68;;
22812;SDS011;11573;51.334;3.244;2023-06-24T10:47:35;18.45;;;11.73;;
22812;SDS011;11573;51.334;3.244;2023-06-24T10:50:05;17.17;;;13.07;;
22812;SDS011;11573;51.334;3.244;2023-06-24T10:52:37;22.73;;;12.70;;
22812;SDS011;11573;51.334;3.244;2023-06-24T10:55:05;18.90;;;13.15;;
22812;SDS011;11573;51.334;3.244;2023-06-24T10:57:33;18.55;;;12.82;;
22812;SDS011;11573;51.334;3.244;2023-06-24T11:00:02;17.35;;;13.10;;
22812;SDS011;11573;51.334;3.244;2023-06-24T11:02:29;17.10;;;12.65;;
22812;SDS011;11573;51.334;3.244;2023-06-24T11:04:57;19.38;;;12.73;;
22812;SDS011;11573;51.334;3.244;2023-06-24T11:07:26;20.05;;;13.20;;
22812;SDS011;11573;51.334;3.244;2023-06-24T11:09:58;20.00;;;13.35;;
22812;SDS011;11573;51.334;3.244;2023-06-24T11:12:28;19.30;;;12.95;;
22812;SDS011;11573;51.334;3.244;2023-06-24T11:14:57;17.15;;;12.77;;
22812;SDS011;11573;51.334;3.244;2023-06-24T11:17:26;20.45;;;12.82;;
22812;SDS011;11573;51.334;3.244;2023-06-24T11:19:53;18.40;;;13.55;;
22812;SDS011;11573;51.334;3.244;2023-06-24T11:22:21;20.20;;;13.20;;
22812;SDS011;11573;51.334;3.244;2023-06-24T11:24:49;18.38;;;13.30;;
22812;SDS011;11573;51.334;3.244;2023-06-24T11:27:16;17.77;;;12.00;;
22812;SDS011;11573;51.334;3.244;2023-06-24T11:29:51;19.70;;;12.25;;
22812;SDS011;11573;51.334;3.244;2023-06-24T11:32:18;19.48;;;11.98;;
22812;SDS011;11573;51.334;3.244;2023-06-24T11:34:46;13.15;;;10.77;;
22812;SDS011;11573;51.334;3.244;2023-06-24T11:37:14;16.95;;;12.52;;
22812;SDS011;11573;51.334;3.244;2023-06-24T11:39:43;18.30;;;12.35;;
22812;SDS011;11573;51.334;3.244;2023-06-24T11:42:11;19.83;;;12.65;;
22812;SDS011;11573;51.334;3.244;2023-06-24T11:44:41;15.68;;;12.02;;
22812;SDS011;11573;51.334;3.244;2023-06-24T11:47:10;14.73;;;11.40;;
22812;SDS011;11573;51.334;3.244;2023-06-24T11:49:51;14.45;;;11.38;;
22812;SDS011;11573;51.334;3.244;2023-06-24T11:52:19;17.02;;;12.07;;
22812;SDS011;11573;51.334;3.244;2023-06-24T11:54:58;16.00;;;9.77;;
22812;SDS011;11573;51.334;3.244;2023-06-24T11:57:46;13.55;;;12.02;;
22812;SDS011;11573;51.334;3.244;2023-06-24T12:02:54;16.02;;;10.32;;
22812;SDS011;11573;51.334;3.244;2023-06-24T12:05:29;17.15;;;12.40;;
22812;SDS011;11573;51.334;3.244;2023-06-24T12:07:59;18.20;;;12.48;;
22812;SDS011;11573;51.334;3.244;2023-06-24T12:10:33;14.10;;;10.55;;
22812;SDS011;11573;51.334;3.244;2023-06-24T12:13:02;15.80;;;11.57;;
22812;SDS011;11573;51.334;3.244;2023-06-24T12:15:32;15.32;;;10.50;;
22812;SDS011;11573;51.334;3.244;2023-06-24T12:17:59;15.63;;;10.35;;
22812;SDS011;11573;51.334;3.244;2023-06-24T12:20:29;17.05;;;11.55;;
22812;SDS011;11573;51.334;3.244;2023-06-24T12:23:00;16.15;;;10.88;;
22812;SDS011;11573;51.334;3.244;2023-06-24T12:25:27;14.73;;;10.65;;
22812;SDS011;11573;51.334;3.244;2023-06-24T12:27:54;14.48;;;11.05;;
22812;SDS011;11573;51.334;3.244;2023-06-24T12:30:21;14.63;;;11.82;;
22812;SDS011;11573;51.334;3.244;2023-06-24T12:32:49;17.67;;;10.68;;
22812;SDS011;11573;51.334;3.244;2023-06-24T12:35:17;14.35;;;10.73;;
22812;SDS011;11573;51.334;3.244;2023-06-24T12:37:44;14.63;;;10.50;;
22812;SDS011;11573;51.334;3.244;2023-06-24T12:40:12;13.32;;;11.02;;
22812;SDS011;11573;51.334;3.244;2023-06-24T12:42:39;20.65;;;11.52;;
22812;SDS011;11573;51.334;3.244;2023-06-24T12:45:06;14.15;;;11.13;;
22812;SDS011;11573;51.334;3.244;2023-06-24T12:47:34;17.35;;;11.15;;
22812;SDS011;11573;51.334;3.244;2023-06-24T12:50:00;17.10;;;11.27;;
22812;SDS011;11573;51.334;3.244;2023-06-24T12:52:28;15.38;;;9.55;;
22812;SDS011;11573;51.334;3.244;2023-06-24T12:54:54;11.80;;;9.93;;
22812;SDS011;11573;51.334;3.244;2023-06-24T12:57:21;15.20;;;10.30;;
22812;SDS011;11573;51.334;3.244;2023-06-24T12:59:48;17.60;;;10.38;;
22812;SDS011;11573;51.334;3.244;2023-06-24T13:02:15;13.70;;;9.77;;
22812;SDS011;11573;51.334;3.244;2023-06-24T13:04:42;17.88;;;11.02;;
22812;SDS011;11573;51.334;3.244;2023-06-24T13:07:09;14.35;;;9.88;;
22812;SDS011;11573;51.334;3.244;2023-06-24T13:09:36;11.15;;;9.18;;
22812;SDS011;11573;51.334;3.244;2023-06-24T13:12:03;12.68;;;9.02;;
22812;SDS011;11573;51.334;3.244;2023-06-24T13:14:30;14.00;;;8.43;;
22812;SDS011;11573;51.334;3.244;2023-06-24T13:16:57;12.40;;;8.45;;
22812;SDS011;11573;51.334;3.244;2023-06-24T13:19:24;11.48;;;8.15;;
22812;SDS011;11573;51.334;3.244;2023-06-24T13:21:51;12.10;;;7.85;;
22812;SDS011;11573;51.334;3.244;2023-06-24T13:24:18;10.13;;;7.72;;
22812;SDS011;11573;51.334;3.244;2023-06-24T13:26:45;9.40;;;7.05;;
22812;SDS011;11573;51.334;3.244;2023-06-24T13:29:12;8.05;;;6.88;;
22812;SDS011;11573;51.334;3.244;2023-06-24T13:31:39;9.80;;;7.53;;
22812;SDS011;11573;51.334;3.244;2023-06-24T13:34:07;12.80;;;7.22;;
22812;SDS011;11573;51.334;3.244;2023-06-24T13:36:34;11.90;;;7.72;;
22812;SDS011;11573;51.334;3.244;2023-06-24T13:39:03;8.70;;;6.97;;
22812;SDS011;11573;51.334;3.244;2023-06-24T13:41:31;11.50;;;7.50;;
22812;SDS011;11573;51.334;3.244;2023-06-24T13:44:02;8.88;;;7.22;;
22812;SDS011;11573;51.334;3.244;2023-06-24T13:46:31;12.88;;;7.50;;
22812;SDS011;11573;51.334;3.244;2023-06-24T13:48:59;9.27;;;7.78;;
22812;SDS011;11573;51.334;3.244;2023-06-24T13:51:31;12.20;;;7.32;;
22812;SDS011;11573;51.334;3.244;2023-06-24T13:53:58;13.65;;;7.88;;
22812;SDS011;11573;51.334;3.244;2023-06-24T13:56:25;12.00;;;7.47;;
22812;SDS011;11573;51.334;3.244;2023-06-24T13:58:53;8.13;;;6.70;;
22812;SDS011;11573;51.334;3.244;2023-06-24T14:01:20;12.80;;;7.60;;
22812;SDS011;11573;51.334;3.244;2023-06-24T14:03:48;15.68;;;7.85;;
22812;SDS011;11573;51.334;3.244;2023-06-24T14:06:19;11.70;;;7.88;;
22812;SDS011;11573;51.334;3.244;2023-06-24T14:08:47;14.15;;;7.55;;
22812;SDS011;11573;51.334;3.244;2023-06-24T14:11:15;10.68;;;6.93;;
22812;SDS011;11573;51.334;3.244;2023-06-24T14:13:42;9.55;;;6.50;;
22812;SDS011;11573;51.334;3.244;2023-06-24T14:16:10;7.25;;;5.85;;
22812;SDS011;11573;51.334;3.244;2023-06-24T14:18:37;9.98;;;6.32;;
22812;SDS011;11573;51.334;3.244;2023-06-24T14:21:05;9.05;;;6.40;;
22812;SDS011;11573;51.334;3.244;2023-06-24T14:23:33;11.48;;;7.30;;
22812;SDS011;11573;51.334;3.244;2023-06-24T14:26:00;9.95;;;5.70;;
22812;SDS011;11573;51.334;3.244;2023-06-24T14:28:27;7.03;;;5.65;;
22812;SDS011;11573;51.334;3.244;2023-06-24T14:30:54;8.68;;;6.22;;
22812;SDS011;11573;51.334;3.244;2023-06-24T14:33:22;9.10;;;6.22;;
22812;SDS011;11573;51.334;3.244;2023-06-24T14:35:49;8.18;;;5.90;;
22812;SDS011;11573;51.334;3.244;2023-06-24T14:38:18;6.00;;;5.40;;
22812;SDS011;11573;51.334;3.244;2023-06-24T14:40:45;8.68;;;6.10;;
22812;SDS011;11573;51.334;3.244;2023-06-24T14:43:12;9.93;;;5.15;;
22812;SDS011;11573;51.334;3.244;2023-06-24T14:45:39;8.07;;;5.50;;
22812;SDS011;11573;51.334;3.244;2023-06-24T14:48:06;8.05;;;5.78;;
22812;SDS011;11573;51.334;3.244;2023-06-24T14:50:33;7.95;;;5.63;;
22812;SDS011;11573;51.334;3.244;2023-06-24T14:53:00;9.60;;;5.60;;
22812;SDS011;11573;51.334;3.244;2023-06-24T14:55:28;8.68;;;5.85;;
22812;SDS011;11573;51.334;3.244;2023-06-24T14:57:55;9.65;;;6.25;;
22812;SDS011;11573;51.334;3.244;2023-06-24T15:00:22;9.90;;;6.63;;
22812;SDS011;11573;51.334;3.244;2023-06-24T15:02:49;7.47;;;5.85;;
22812;SDS011;11573;51.334;3.244;2023-06-24T15:05:16;10.80;;;6.32;;
22812;SDS011;11573;51.334;3.244;2023-06-24T15:07:43;8.30;;;6.38;;